sensor_id;sensor_type;location;lat;lon;timestamp;pressure;altitude;pressure_sealevel;temperature;humidity
44697;BME280;57264;47.480;19.354;2023-11-21T00:00:00;98651.31;;;4.58;100.00
44697;BME280;57264;47.480;19.354;2023-11-21T00:02:26;98659.72;;;4.75;100.00
44697;BME280;57264;47.480;19.354;2023-11-21T00:04:53;98658.25;;;4.87;100.00
44697;BME280;57264;47.480;19.354;2023-11-21T00:07:19;98661.31;;;4.90;100.00
44697;BME280;57264;47.480;19.354;2023-11-21T00:09:46;98651.66;;;4.84;100.00
44697;BME280;57264;47.480;19.354;2023-11-21T00:12:12;98649.66;;;4.86;100.00
44697;BME280;57264;47.480;19.354;2023-11-21T00:14:39;98650.28;;;4.88;100.00
44697;BME280;57264;47.480;19.354;2023-11-21T00:17:05;98644.47;;;4.86;100.00
44697;BME280;57264;47.480;19.354;2023-11-21T00:19:32;98648.63;;;4.66;100.00
44697;BME280;57264;47.480;19.354;2023-11-21T00:21:58;98650.34;;;4.59;100.00
44697;BME280;57264;47.480;19.354;2023-11-21T00:24:24;98644.22;;;4.66;100.00
44697;BME280;57264;47.480;19.354;2023-11-21T00:26:51;98638.38;;;4.79;100.00
44697;BME280;57264;47.480;19.354;2023-11-21T00:29:16;98630.88;;;5.05;100.00
44697;BME280;57264;47.480;19.354;2023-11-21T00:31:44;98637.63;;;5.21;100.00
44697;BME280;57264;47.480;19.354;2023-11-21T00:34:12;98645.31;;;5.29;100.00
44697;BME280;57264;47.480;19.354;2023-11-21T00:36:37;98647.78;;;5.16;100.00
44697;BME280;57264;47.480;19.354;2023-11-21T00:39:03;98653.03;;;5.01;100.00
44697;BME280;57264;47.480;19.354;2023-11-21T00:41:32;98658.34;;;4.93;100.00
44697;BME280;57264;47.480;19.354;2023-11-21T00:43:57;98663.66;;;4.85;100.00
44697;BME280;57264;47.480;19.354;2023-11-21T00:46:25;98655.59;;;4.65;100.00
44697;BME280;57264;47.480;19.354;2023-11-21T00:48:52;98663.34;;;4.59;100.00
44697;BME280;57264;47.480;19.354;2023-11-21T00:51:20;98665.88;;;4.52;100.00
44697;BME280;57264;47.480;19.354;2023-11-21T00:53:45;98669.88;;;4.55;100.00
44697;BME280;57264;47.480;19.354;2023-11-21T00:56:12;98653.03;;;4.51;99.89
44697;BME280;57264;47.480;19.354;2023-11-21T00:58:37;98658.31;;;4.57;100.00
44697;BME280;57264;47.480;19.354;2023-11-21T01:01:03;98663.88;;;4.69;100.00
44697;BME280;57264;47.480;19.354;2023-11-21T01:03:28;98657.22;;;4.66;100.00
44697;BME280;57264;47.480;19.354;2023-11-21T01:05:54;98651.75;;;4.61;99.90
44697;BME280;57264;47.480;19.354;2023-11-21T01:08:20;98651.25;;;4.51;99.88
44697;BME280;57264;47.480;19.354;2023-11-21T01:10:45;98652.09;;;4.37;99.56
44697;BME280;57264;47.480;19.354;2023-11-21T01:13:11;98656.47;;;4.37;99.83
44697;BME280;57264;47.480;19.354;2023-11-21T01:15:36;98663.25;;;4.38;99.51
44697;BME280;57264;47.480;19.354;2023-11-21T01:18:02;98659.06;;;4.37;99.30
44697;BME280;57264;47.480;19.354;2023-11-21T01:20:29;98661.13;;;4.41;99.50
44697;BME280;57264;47.480;19.354;2023-11-21T01:22:57;98650.19;;;4.60;100.00
44697;BME280;57264;47.480;19.354;2023-11-21T01:25:22;98647.03;;;4.65;100.00
44697;BME280;57264;47.480;19.354;2023-11-21T01:27:48;98652.47;;;4.70;100.00
44697;BME280;57264;47.480;19.354;2023-11-21T01:30:14;98642.81;;;4.64;99.68
44697;BME280;57264;47.480;19.354;2023-11-21T01:32:39;98639.56;;;4.62;99.54
44697;BME280;57264;47.480;19.354;2023-11-21T01:35:06;98639.84;;;4.67;99.85
44697;BME280;57264;47.480;19.354;2023-11-21T01:37:32;98640.28;;;4.70;100.00
44697;BME280;57264;47.480;19.354;2023-11-21T01:39:58;98635.19;;;4.77;99.96
44697;BME280;57264;47.480;19.354;2023-11-21T01:42:24;98639.03;;;4.81;99.91
44697;BME280;57264;47.480;19.354;2023-11-21T01:44:50;98644.44;;;4.65;99.64
44697;BME280;57264;47.480;19.354;2023-11-21T01:47:16;98633.50;;;4.55;99.70
44697;BME280;57264;47.480;19.354;2023-11-21T01:49:45;98630.72;;;4.56;99.36
44697;BME280;57264;47.480;19.354;2023-11-21T01:52:12;98636.75;;;4.57;99.17
44697;BME280;57264;47.480;19.354;2023-11-21T01:54:38;98637.34;;;4.59;98.99
44697;BME280;57264;47.480;19.354;2023-11-21T01:57:04;98619.41;;;4.64;98.94
44697;BME280;57264;47.480;19.354;2023-11-21T01:59:36;98618.78;;;4.77;99.01
44697;BME280;57264;47.480;19.354;2023-11-21T02:02:06;98620.44;;;4.84;99.41
44697;BME280;57264;47.480;19.354;2023-11-21T02:04:35;98615.78;;;4.80;98.86
44697;BME280;57264;47.480;19.354;2023-11-21T02:07:05;98608.81;;;4.80;99.36
44697;BME280;57264;47.480;19.354;2023-11-21T02:09:31;98608.81;;;4.65;99.42
44697;BME280;57264;47.480;19.354;2023-11-21T02:11:58;98608.59;;;4.60;98.91
44697;BME280;57264;47.480;19.354;2023-11-21T02:14:25;98603.88;;;4.70;98.79
44697;BME280;57264;47.480;19.354;2023-11-21T02:16:52;98601.56;;;4.76;98.61
44697;BME280;57264;47.480;19.354;2023-11-21T02:19:20;98603.22;;;4.83;98.88
44697;BME280;57264;47.480;19.354;2023-11-21T02:21:49;98602.41;;;4.83;98.91
44697;BME280;57264;47.480;19.354;2023-11-21T02:24:21;98603.72;;;4.72;98.43
44697;BME280;57264;47.480;19.354;2023-11-21T02:26:48;98605.06;;;4.68;98.48
44697;BME280;57264;47.480;19.354;2023-11-21T02:29:20;98607.94;;;4.73;98.69
44697;BME280;57264;47.480;19.354;2023-11-21T02:31:54;98596.91;;;4.71;98.59
44697;BME280;57264;47.480;19.354;2023-11-21T02:34:20;98599.00;;;4.82;99.59
44697;BME280;57264;47.480;19.354;2023-11-21T02:36:47;98595.44;;;5.04;99.97
44697;BME280;57264;47.480;19.354;2023-11-21T02:39:15;98594.81;;;5.02;99.58
44697;BME280;57264;47.480;19.354;2023-11-21T02:41:42;98596.38;;;4.97;98.96
44697;BME280;57264;47.480;19.354;2023-11-21T02:44:08;98605.09;;;4.89;98.97
44697;BME280;57264;47.480;19.354;2023-11-21T02:46:34;98600.63;;;4.83;98.89
44697;BME280;57264;47.480;19.354;2023-11-21T02:49:01;98597.31;;;4.89;98.91
44697;BME280;57264;47.480;19.354;2023-11-21T02:51:27;98593.81;;;4.82;98.90
44697;BME280;57264;47.480;19.354;2023-11-21T02:53:52;98598.84;;;4.84;99.11
44697;BME280;57264;47.480;19.354;2023-11-21T02:56:18;98593.75;;;4.76;98.61
44697;BME280;57264;47.480;19.354;2023-11-21T02:58:44;98591.09;;;4.69;98.71
44697;BME280;57264;47.480;19.354;2023-11-21T03:01:10;98589.31;;;4.55;98.66
44697;BME280;57264;47.480;19.354;2023-11-21T03:03:37;98577.88;;;4.49;98.66
44697;BME280;57264;47.480;19.354;2023-11-21T03:06:05;98577.19;;;4.41;98.75
44697;BME280;57264;47.480;19.354;2023-11-21T03:08:31;98572.31;;;4.38;98.88
44697;BME280;57264;47.480;19.354;2023-11-21T03:10:58;98567.13;;;4.38;98.72
44697;BME280;57264;47.480;19.354;2023-11-21T03:13:23;98573.44;;;4.29;98.67
44697;BME280;57264;47.480;19.354;2023-11-21T03:15:49;98570.41;;;4.25;99.04
44697;BME280;57264;47.480;19.354;2023-11-21T03:18:15;98563.47;;;4.32;98.78
44697;BME280;57264;47.480;19.354;2023-11-21T03:20:40;98565.19;;;4.25;98.49
44697;BME280;57264;47.480;19.354;2023-11-21T03:23:06;98564.03;;;4.28;98.79
44697;BME280;57264;47.480;19.354;2023-11-21T03:25:32;98552.81;;;4.27;98.67
44697;BME280;57264;47.480;19.354;2023-11-21T03:27:58;98552.88;;;4.34;98.36
44697;BME280;57264;47.480;19.354;2023-11-21T03:30:23;98545.66;;;4.29;98.59
44697;BME280;57264;47.480;19.354;2023-11-21T03:32:49;98542.88;;;4.31;98.84
44697;BME280;57264;47.480;19.354;2023-11-21T03:35:14;98541.25;;;4.30;98.88
44697;BME280;57264;47.480;19.354;2023-11-21T03:37:40;98546.00;;;4.26;98.45
44697;BME280;57264;47.480;19.354;2023-11-21T03:40:07;98547.44;;;4.29;98.50
44697;BME280;57264;47.480;19.354;2023-11-21T03:42:38;98544.84;;;4.29;98.24
44697;BME280;57264;47.480;19.354;2023-11-21T03:45:05;98544.44;;;4.46;98.54
44697;BME280;57264;47.480;19.354;2023-11-21T03:47:31;98541.81;;;4.61;98.51
44697;BME280;57264;47.480;19.354;2023-11-21T03:49:57;98533.13;;;4.54;98.55
44697;BME280;57264;47.480;19.354;2023-11-21T03:52:22;98529.09;;;4.51;98.29
44697;BME280;57264;47.480;19.354;2023-11-21T03:54:48;98525.97;;;4.56;98.13
44697;BME280;57264;47.480;19.354;2023-11-21T03:57:13;98527.31;;;4.52;98.32
44697;BME280;57264;47.480;19.354;2023-11-21T03:59:43;98524.72;;;4.52;98.28
44697;BME280;57264;47.480;19.354;2023-11-21T04:02:09;98523.53;;;4.54;98.40
44697;BME280;57264;47.480;19.354;2023-11-21T04:04:35;98527.94;;;4.54;98.29
44697;BME280;57264;47.480;19.354;2023-11-21T04:07:01;98528.56;;;4.56;98.21
44697;BME280;57264;47.480;19.354;2023-11-21T04:09:27;98534.31;;;4.51;98.04
44697;BME280;57264;47.480;19.354;2023-11-21T04:11:52;98541.50;;;4.49;98.46
44697;BME280;57264;47.480;19.354;2023-11-21T04:14:18;98539.75;;;4.56;98.35
44697;BME280;57264;47.480;19.354;2023-11-21T04:16:44;98541.81;;;4.61;98.27
44697;BME280;57264;47.480;19.354;2023-11-21T04:19:10;98553.19;;;4.60;98.47
44697;BME280;57264;47.480;19.354;2023-11-21T04:21:38;98564.41;;;4.60;99.25
44697;BME280;57264;47.480;19.354;2023-11-21T04:24:04;98563.31;;;4.55;98.83
44697;BME280;57264;47.480;19.354;2023-11-21T04:26:31;98571.28;;;4.53;98.80
44697;BME280;57264;47.480;19.354;2023-11-21T04:28:57;98575.72;;;4.53;98.97
44697;BME280;57264;47.480;19.354;2023-11-21T04:31:22;98578.56;;;4.58;99.03
44697;BME280;57264;47.480;19.354;2023-11-21T04:33:47;98571.41;;;4.81;99.07
44697;BME280;57264;47.480;19.354;2023-11-21T04:36:13;98574.00;;;5.02;99.07
44697;BME280;57264;47.480;19.354;2023-11-21T04:38:39;98570.59;;;5.02;99.24
44697;BME280;57264;47.480;19.354;2023-11-21T04:41:04;98565.84;;;5.05;98.81
44697;BME280;57264;47.480;19.354;2023-11-21T04:43:30;98568.47;;;5.05;98.51
44697;BME280;57264;47.480;19.354;2023-11-21T04:45:55;98562.88;;;5.08;98.65
44697;BME280;57264;47.480;19.354;2023-11-21T04:48:21;98561.75;;;5.17;98.95
44697;BME280;57264;47.480;19.354;2023-11-21T04:50:46;98565.00;;;5.26;98.88
44697;BME280;57264;47.480;19.354;2023-11-21T04:53:12;98570.63;;;5.30;98.56
44697;BME280;57264;47.480;19.354;2023-11-21T04:55:40;98575.16;;;5.42;98.73
44697;BME280;57264;47.480;19.354;2023-11-21T04:58:06;98571.00;;;5.48;98.26
44697;BME280;57264;47.480;19.354;2023-11-21T05:00:32;98581.25;;;5.56;97.79
44697;BME280;57264;47.480;19.354;2023-11-21T05:02:57;98584.13;;;5.61;98.05
44697;BME280;57264;47.480;19.354;2023-11-21T05:05:23;98588.78;;;5.72;97.98
44697;BME280;57264;47.480;19.354;2023-11-21T05:07:49;98591.06;;;5.82;97.39
44697;BME280;57264;47.480;19.354;2023-11-21T05:10:14;98593.72;;;5.88;98.01
44697;BME280;57264;47.480;19.354;2023-11-21T05:12:41;98597.81;;;5.97;98.08
44697;BME280;57264;47.480;19.354;2023-11-21T05:15:08;98589.38;;;6.02;97.62
44697;BME280;57264;47.480;19.354;2023-11-21T05:17:39;98594.88;;;6.14;97.04
44697;BME280;57264;47.480;19.354;2023-11-21T05:20:10;98597.84;;;6.10;96.90
44697;BME280;57264;47.480;19.354;2023-11-21T05:22:37;98606.69;;;6.09;97.09
44697;BME280;57264;47.480;19.354;2023-11-21T05:25:03;98601.91;;;6.13;96.79
44697;BME280;57264;47.480;19.354;2023-11-21T05:27:30;98604.94;;;6.23;95.88
44697;BME280;57264;47.480;19.354;2023-11-21T05:29:59;98607.22;;;6.33;96.15
44697;BME280;57264;47.480;19.354;2023-11-21T05:32:25;98603.41;;;6.35;95.74
44697;BME280;57264;47.480;19.354;2023-11-21T05:34:51;98607.69;;;6.49;95.16
44697;BME280;57264;47.480;19.354;2023-11-21T05:37:16;98599.47;;;6.52;94.02
44697;BME280;57264;47.480;19.354;2023-11-21T05:39:43;98597.84;;;6.45;95.15
44697;BME280;57264;47.480;19.354;2023-11-21T05:42:08;98599.63;;;6.44;94.79
44697;BME280;57264;47.480;19.354;2023-11-21T05:44:36;98591.41;;;6.41;94.11
44697;BME280;57264;47.480;19.354;2023-11-21T05:47:02;98594.25;;;6.46;94.46
44697;BME280;57264;47.480;19.354;2023-11-21T05:49:29;98587.44;;;6.51;94.42
44697;BME280;57264;47.480;19.354;2023-11-21T05:51:56;98601.25;;;6.52;93.27
44697;BME280;57264;47.480;19.354;2023-11-21T05:54:22;98596.03;;;6.45;94.10
44697;BME280;57264;47.480;19.354;2023-11-21T05:56:49;98600.63;;;6.50;93.86
44697;BME280;57264;47.480;19.354;2023-11-21T05:59:15;98593.63;;;6.44;93.91
44697;BME280;57264;47.480;19.354;2023-11-21T06:01:40;98597.44;;;6.41;93.79
44697;BME280;57264;47.480;19.354;2023-11-21T06:04:06;98600.41;;;6.38;93.47
44697;BME280;57264;47.480;19.354;2023-11-21T06:06:33;98596.78;;;6.33;94.22
44697;BME280;57264;47.480;19.354;2023-11-21T06:08:59;98595.16;;;6.25;94.28
44697;BME280;57264;47.480;19.354;2023-11-21T06:11:25;98599.34;;;6.26;94.64
44697;BME280;57264;47.480;19.354;2023-11-21T06:13:50;98618.22;;;6.28;94.11
44697;BME280;57264;47.480;19.354;2023-11-21T06:16:19;98615.19;;;6.25;94.13
44697;BME280;57264;47.480;19.354;2023-11-21T06:18:47;98623.25;;;6.30;94.41
44697;BME280;57264;47.480;19.354;2023-11-21T06:21:13;98624.81;;;6.24;93.95
44697;BME280;57264;47.480;19.354;2023-11-21T06:23:39;98641.03;;;6.26;93.81
44697;BME280;57264;47.480;19.354;2023-11-21T06:26:05;98646.25;;;6.26;93.70
44697;BME280;57264;47.480;19.354;2023-11-21T06:28:31;98660.31;;;6.32;93.94
44697;BME280;57264;47.480;19.354;2023-11-21T06:30:57;98655.53;;;6.35;93.65
44697;BME280;57264;47.480;19.354;2023-11-21T06:33:31;98662.38;;;6.43;93.59
44697;BME280;57264;47.480;19.354;2023-11-21T06:35:57;98666.00;;;6.42;94.00
44697;BME280;57264;47.480;19.354;2023-11-21T06:38:23;98682.00;;;6.39;93.62
44697;BME280;57264;47.480;19.354;2023-11-21T06:40:48;98669.84;;;6.46;93.60
44697;BME280;57264;47.480;19.354;2023-11-21T06:43:14;98672.81;;;6.43;93.03
44697;BME280;57264;47.480;19.354;2023-11-21T06:45:40;98670.41;;;6.41;93.69
44697;BME280;57264;47.480;19.354;2023-11-21T06:48:06;98671.63;;;6.45;93.08
44697;BME280;57264;47.480;19.354;2023-11-21T06:50:32;98668.00;;;6.46;93.31
44697;BME280;57264;47.480;19.354;2023-11-21T06:52:57;98673.03;;;6.48;92.95
44697;BME280;57264;47.480;19.354;2023-11-21T06:55:23;98672.44;;;6.46;92.81
44697;BME280;57264;47.480;19.354;2023-11-21T06:57:48;98679.31;;;6.53;92.67
44697;BME280;57264;47.480;19.354;2023-11-21T07:00:16;98679.75;;;6.64;92.90
44697;BME280;57264;47.480;19.354;2023-11-21T07:02:43;98676.13;;;6.65;93.26
44697;BME280;57264;47.480;19.354;2023-11-21T07:05:09;98687.38;;;6.65;92.25
44697;BME280;57264;47.480;19.354;2023-11-21T07:07:35;98684.47;;;6.88;92.58
44697;BME280;57264;47.480;19.354;2023-11-21T07:10:03;98693.09;;;6.95;91.79
44697;BME280;57264;47.480;19.354;2023-11-21T07:12:31;98693.34;;;7.06;91.40
44697;BME280;57264;47.480;19.354;2023-11-21T07:14:58;98685.09;;;6.96;91.30
44697;BME280;57264;47.480;19.354;2023-11-21T07:17:26;98694.78;;;7.09;91.12
44697;BME280;57264;47.480;19.354;2023-11-21T07:19:52;98682.13;;;7.06;91.01
44697;BME280;57264;47.480;19.354;2023-11-21T07:22:17;98676.50;;;7.16;90.74
44697;BME280;57264;47.480;19.354;2023-11-21T07:24:50;98689.38;;;7.24;90.15
44697;BME280;57264;47.480;19.354;2023-11-21T07:27:18;98693.81;;;7.30;90.17
44697;BME280;57264;47.480;19.354;2023-11-21T07:29:44;98707.66;;;7.24;88.68
44697;BME280;57264;47.480;19.354;2023-11-21T07:32:10;98701.06;;;7.41;87.95
44697;BME280;57264;47.480;19.354;2023-11-21T07:34:36;98695.25;;;7.52;87.85
44697;BME280;57264;47.480;19.354;2023-11-21T07:37:02;98695.03;;;7.47;87.56
44697;BME280;57264;47.480;19.354;2023-11-21T07:39:28;98689.22;;;7.45;87.53
44697;BME280;57264;47.480;19.354;2023-11-21T07:41:54;98683.56;;;7.35;87.66
44697;BME280;57264;47.480;19.354;2023-11-21T07:44:19;98694.06;;;7.41;87.29
44697;BME280;57264;47.480;19.354;2023-11-21T07:46:45;98688.03;;;7.41;87.02
44697;BME280;57264;47.480;19.354;2023-11-21T07:49:12;98689.59;;;7.29;86.99
44697;BME280;57264;47.480;19.354;2023-11-21T07:51:42;98695.03;;;7.34;87.54
44697;BME280;57264;47.480;19.354;2023-11-21T07:54:07;98695.03;;;7.34;87.40
44697;BME280;57264;47.480;19.354;2023-11-21T07:56:33;98687.44;;;7.45;86.26
44697;BME280;57264;47.480;19.354;2023-11-21T07:58:58;98691.25;;;7.56;85.90
44697;BME280;57264;47.480;19.354;2023-11-21T08:01:24;98693.66;;;7.51;85.83
44697;BME280;57264;47.480;19.354;2023-11-21T08:03:50;98691.47;;;7.61;85.77
44697;BME280;57264;47.480;19.354;2023-11-21T08:06:18;98693.28;;;7.54;86.38
44697;BME280;57264;47.480;19.354;2023-11-21T08:08:43;98697.28;;;7.63;85.88
44697;BME280;57264;47.480;19.354;2023-11-21T08:11:09;98699.09;;;7.69;85.93
44697;BME280;57264;47.480;19.354;2023-11-21T08:13:36;98700.09;;;7.62;86.24
44697;BME280;57264;47.480;19.354;2023-11-21T08:16:01;98696.06;;;7.59;86.04
44697;BME280;57264;47.480;19.354;2023-11-21T08:18:28;98694.47;;;7.71;85.75
44697;BME280;57264;47.480;19.354;2023-11-21T08:20:55;98687.25;;;7.73;86.12
44697;BME280;57264;47.480;19.354;2023-11-21T08:23:21;98689.88;;;7.73;85.81
44697;BME280;57264;47.480;19.354;2023-11-21T08:25:51;98686.66;;;7.78;85.72
44697;BME280;57264;47.480;19.354;2023-11-21T08:28:17;98688.66;;;7.89;85.36
44697;BME280;57264;47.480;19.354;2023-11-21T08:30:43;98681.59;;;7.83;85.69
44697;BME280;57264;47.480;19.354;2023-11-21T08:33:09;98688.06;;;7.80;85.21
44697;BME280;57264;47.480;19.354;2023-11-21T08:35:36;98686.84;;;7.70;85.07
44697;BME280;57264;47.480;19.354;2023-11-21T08:38:02;98683.63;;;7.81;85.38
44697;BME280;57264;47.480;19.354;2023-11-21T08:40:28;98686.03;;;7.82;84.84
44697;BME280;57264;47.480;19.354;2023-11-21T08:42:54;98692.28;;;7.81;84.85
44697;BME280;57264;47.480;19.354;2023-11-21T08:45:21;98672.78;;;7.97;84.51
44697;BME280;57264;47.480;19.354;2023-11-21T08:47:48;98675.78;;;8.14;83.96
44697;BME280;57264;47.480;19.354;2023-11-21T08:50:14;98684.00;;;8.11;84.19
44697;BME280;57264;47.480;19.354;2023-11-21T08:52:40;98675.56;;;8.09;83.44
44697;BME280;57264;47.480;19.354;2023-11-21T08:55:06;98669.13;;;8.31;82.91
44697;BME280;57264;47.480;19.354;2023-11-21T08:57:39;98673.31;;;8.45;82.41
44697;BME280;57264;47.480;19.354;2023-11-21T09:00:08;98672.28;;;8.53;81.74
44697;BME280;57264;47.480;19.354;2023-11-21T09:02:38;98679.97;;;8.28;82.60
44697;BME280;57264;47.480;19.354;2023-11-21T09:05:05;98681.78;;;8.27;82.85
44697;BME280;57264;47.480;19.354;2023-11-21T09:07:32;98686.84;;;8.29;82.86
44697;BME280;57264;47.480;19.354;2023-11-21T09:09:57;98679.38;;;8.32;82.27
44697;BME280;57264;47.480;19.354;2023-11-21T09:12:23;98684.53;;;8.65;81.77
44697;BME280;57264;47.480;19.354;2023-11-21T09:14:50;98671.06;;;8.62;81.20
44697;BME280;57264;47.480;19.354;2023-11-21T09:17:16;98676.81;;;8.83;80.45
44697;BME280;57264;47.480;19.354;2023-11-21T09:19:42;98667.59;;;8.74;80.27
44697;BME280;57264;47.480;19.354;2023-11-21T09:22:10;98663.75;;;8.77;80.90
44697;BME280;57264;47.480;19.354;2023-11-21T09:24:36;98657.72;;;8.76;80.37
44697;BME280;57264;47.480;19.354;2023-11-21T09:27:03;98660.34;;;8.76;80.62
44697;BME280;57264;47.480;19.354;2023-11-21T09:29:29;98651.94;;;9.06;79.89
44697;BME280;57264;47.480;19.354;2023-11-21T09:31:55;98647.13;;;9.03;80.47
44697;BME280;57264;47.480;19.354;2023-11-21T09:34:21;98656.13;;;9.13;80.36
44697;BME280;57264;47.480;19.354;2023-11-21T09:36:48;98667.38;;;9.20;80.00
44697;BME280;57264;47.480;19.354;2023-11-21T09:39:14;98654.47;;;9.19;80.18
44697;BME280;57264;47.480;19.354;2023-11-21T09:41:46;98661.19;;;9.39;79.74
44697;BME280;57264;47.480;19.354;2023-11-21T09:44:18;98653.31;;;9.46;79.65
44697;BME280;57264;47.480;19.354;2023-11-21T09:46:47;98651.88;;;9.50;79.65
44697;BME280;57264;47.480;19.354;2023-11-21T09:49:18;98656.47;;;9.55;79.66
44697;BME280;57264;47.480;19.354;2023-11-21T09:51:48;98652.69;;;9.51;80.35
44697;BME280;57264;47.480;19.354;2023-11-21T09:54:16;98656.06;;;9.51;79.52
44697;BME280;57264;47.480;19.354;2023-11-21T09:56:42;98653.25;;;9.53;79.58
44697;BME280;57264;47.480;19.354;2023-11-21T09:59:13;98651.44;;;9.53;79.09
44697;BME280;57264;47.480;19.354;2023-11-21T10:01:41;98642.19;;;9.51;78.84
44697;BME280;57264;47.480;19.354;2023-11-21T10:04:08;98641.34;;;9.57;79.17
44697;BME280;57264;47.480;19.354;2023-11-21T10:06:40;98642.88;;;9.64;79.93
44697;BME280;57264;47.480;19.354;2023-11-21T10:09:12;98630.16;;;9.68;80.33
44697;BME280;57264;47.480;19.354;2023-11-21T10:11:43;98640.75;;;9.55;80.17
44697;BME280;57264;47.480;19.354;2023-11-21T10:14:10;98635.88;;;9.58;79.90
44697;BME280;57264;47.480;19.354;2023-11-21T10:16:38;98642.81;;;9.71;79.48
44697;BME280;57264;47.480;19.354;2023-11-21T10:19:04;98632.56;;;9.69;79.85
44697;BME280;57264;47.480;19.354;2023-11-21T10:21:32;98630.38;;;9.66;80.37
44697;BME280;57264;47.480;19.354;2023-11-21T10:23:59;98624.97;;;9.61;80.02
44697;BME280;57264;47.480;19.354;2023-11-21T10:26:28;98619.66;;;9.68;79.47
44697;BME280;57264;47.480;19.354;2023-11-21T10:29:02;98622.44;;;9.73;79.24
44697;BME280;57264;47.480;19.354;2023-11-21T10:31:30;98624.00;;;9.80;78.94
44697;BME280;57264;47.480;19.354;2023-11-21T10:34:15;98619.84;;;9.91;79.10
44697;BME280;57264;47.480;19.354;2023-11-21T10:36:42;98625.59;;;9.81;79.10
44697;BME280;57264;47.480;19.354;2023-11-21T10:39:07;98624.00;;;9.80;79.42
44697;BME280;57264;47.480;19.354;2023-11-21T10:41:35;98620.28;;;9.88;78.22
44697;BME280;57264;47.480;19.354;2023-11-21T10:44:01;98620.09;;;9.90;78.20
44697;BME280;57264;47.480;19.354;2023-11-21T10:46:34;98622.63;;;9.96;78.33
44697;BME280;57264;47.480;19.354;2023-11-21T10:49:00;98621.53;;;9.85;78.92
44697;BME280;57264;47.480;19.354;2023-11-21T10:51:26;98608.59;;;9.91;79.11
44697;BME280;57264;47.480;19.354;2023-11-21T10:53:52;98612.00;;;9.91;79.48
44697;BME280;57264;47.480;19.354;2023-11-21T10:56:18;98618.00;;;9.98;78.73
44697;BME280;57264;47.480;19.354;2023-11-21T10:58:48;98615.31;;;10.05;79.44
44697;BME280;57264;47.480;19.354;2023-11-21T11:01:18;98608.34;;;10.17;78.93
44697;BME280;57264;47.480;19.354;2023-11-21T11:03:44;98610.88;;;10.23;78.51
44697;BME280;57264;47.480;19.354;2023-11-21T11:06:10;98609.88;;;10.24;77.71
44697;BME280;57264;47.480;19.354;2023-11-21T11:08:38;98609.50;;;10.39;76.41
44697;BME280;57264;47.480;19.354;2023-11-21T11:11:09;98603.59;;;10.44;76.49
44697;BME280;57264;47.480;19.354;2023-11-21T11:13:37;98605.00;;;10.46;76.52
44697;BME280;57264;47.480;19.354;2023-11-21T11:16:03;98600.69;;;10.52;76.17
44697;BME280;57264;47.480;19.354;2023-11-21T11:18:33;98604.81;;;10.59;76.02
44697;BME280;57264;47.480;19.354;2023-11-21T11:21:11;98598.72;;;10.65;75.81
44697;BME280;57264;47.480;19.354;2023-11-21T11:23:54;98598.41;;;10.55;76.11
44697;BME280;57264;47.480;19.354;2023-11-21T11:35:05;98606.25;;;10.25;76.90
44697;BME280;57264;47.480;19.354;2023-11-21T11:37:33;98602.19;;;10.05;77.60
44697;BME280;57264;47.480;19.354;2023-11-21T11:40:00;98600.38;;;10.05;77.10
44697;BME280;57264;47.480;19.354;2023-11-21T11:42:26;98611.50;;;10.01;78.21
44697;BME280;57264;47.480;19.354;2023-11-21T11:44:52;98599.28;;;9.95;78.27
44697;BME280;57264;47.480;19.354;2023-11-21T11:47:22;98598.41;;;10.01;77.68
44697;BME280;57264;47.480;19.354;2023-11-21T11:50:04;98595.13;;;10.05;77.63
44697;BME280;57264;47.480;19.354;2023-11-21T11:52:46;98595.50;;;10.09;77.16
44697;BME280;57264;47.480;19.354;2023-11-21T11:55:13;98599.94;;;10.08;77.54
44697;BME280;57264;47.480;19.354;2023-11-21T11:57:42;98584.34;;;10.13;77.61
44697;BME280;57264;47.480;19.354;2023-11-21T12:00:13;98580.00;;;10.25;76.94
44697;BME280;57264;47.480;19.354;2023-11-21T12:02:46;98584.09;;;10.21;78.03
44697;BME280;57264;47.480;19.354;2023-11-21T12:05:22;98584.66;;;10.23;77.28
44697;BME280;57264;47.480;19.354;2023-11-21T12:07:52;98586.16;;;10.13;77.49
44697;BME280;57264;47.480;19.354;2023-11-21T12:10:29;98585.25;;;10.25;76.55
44697;BME280;57264;47.480;19.354;2023-11-21T12:13:00;98581.75;;;10.31;76.16
44697;BME280;57264;47.480;19.354;2023-11-21T12:15:27;98575.50;;;10.32;75.73
44697;BME280;57264;47.480;19.354;2023-11-21T12:17:57;98573.22;;;10.36;76.00
44697;BME280;57264;47.480;19.354;2023-11-21T12:20:26;98570.38;;;10.38;75.90
44697;BME280;57264;47.480;19.354;2023-11-21T12:22:57;98563.94;;;10.52;74.30
44697;BME280;57264;47.480;19.354;2023-11-21T12:25:28;98566.16;;;10.37;74.59
44697;BME280;57264;47.480;19.354;2023-11-21T12:28:02;98576.09;;;10.35;74.43
44697;BME280;57264;47.480;19.354;2023-11-21T12:30:31;98574.31;;;10.47;74.74
44697;BME280;57264;47.480;19.354;2023-11-21T12:32:59;98572.06;;;10.50;73.81
44697;BME280;57264;47.480;19.354;2023-11-21T12:35:28;98568.28;;;10.46;75.19
44697;BME280;57264;47.480;19.354;2023-11-21T12:37:55;98562.88;;;10.41;74.66
44697;BME280;57264;47.480;19.354;2023-11-21T12:40:22;98561.72;;;10.37;75.81
44697;BME280;57264;47.480;19.354;2023-11-21T12:42:54;98567.75;;;10.38;76.53
44697;BME280;57264;47.480;19.354;2023-11-21T12:45:22;98566.06;;;10.43;77.17
44697;BME280;57264;47.480;19.354;2023-11-21T12:47:49;98567.66;;;10.44;76.71
44697;BME280;57264;47.480;19.354;2023-11-21T12:50:22;98567.53;;;10.39;76.73
44697;BME280;57264;47.480;19.354;2023-11-21T12:52:57;98565.94;;;10.20;77.56
44697;BME280;57264;47.480;19.354;2023-11-21T12:55:23;98568.03;;;10.11;77.51
44697;BME280;57264;47.480;19.354;2023-11-21T12:57:52;98563.38;;;10.13;78.27
44697;BME280;57264;47.480;19.354;2023-11-21T13:00:33;98564.47;;;10.06;77.86
44697;BME280;57264;47.480;19.354;2023-11-21T13:03:03;98562.28;;;10.03;78.40
44697;BME280;57264;47.480;19.354;2023-11-21T13:05:32;98567.25;;;10.11;78.58